T. H. Kelly — WDC3264 — position and weather

sailwx.info

Track history (hours):
 
Tides and Currents Weather Stations Pressure Air Temp Water Temp Dewpoint Dewpoint Depression Visibility Wind Speed Wind Dir Waves Ship Positions

T. H. Kelly

Owner: Cooper Marine & Timberlands Corporation, Mobile, AL. More information available from US FCC via Universal Licensing System and Coast Guard Vessel Documentation Center.

Last reported at 2018-Jul-13 10:01 UTC. Time now 2018-Jul-22 03:03 UTC.
Position N 30°23' W 086°57'.
Warning: this ship's position is 8 days out of date.

Length 27 m; draft 3 m.

Type: Towing. MMSI: 367004910.

Date/timePositionNaut miles runAvg speedWind from/ knotsBaromVisibWave heightAir tempDewpointWater temp
2018-Jul-13 10:01N 30°23' W 086°57'0 5.3
2018-Jul-13 09:58N 30°23' W 086°57'2 5.2
2018-Jul-13 09:30N 30°24' W 086°54'3 5.2
2018-Jul-13 09:00N 30°24' W 086°51'3 5.3
2018-Jul-13 08:30N 30°24' W 086°48'3 5.3
2018-Jul-13 08:00N 30°24' W 086°45'3 5.2
2018-Jul-13 07:25N 30°24' W 086°41'9 5.4
2018-Jul-13 05:42N 30°25' W 086°31'1 5.8
2018-Jul-13 05:30N 30°26' W 086°29'3 5.7
2018-Jul-13 05:00N 30°26' W 086°26'3 5.3
2018-Jul-13 04:30N 30°26' W 086°23'3 5.2
2018-Jul-13 03:58N 30°26' W 086°20'2 0.0
2018-Jul-11 05:43N 30°26' W 086°18'1 5.1
2018-Jul-11 05:30N 30°26' W 086°19'3 5.1
2018-Jul-11 05:00N 30°26' W 086°22'3 5.0
2018-Jul-11 04:30N 30°26' W 086°25'3 5.0
2018-Jul-11 04:00N 30°26' W 086°28'10 4.2
2018-Jul-11 01:37N 30°24' W 086°39'2 3.6
2018-Jul-11 01:10N 30°24' W 086°41'1 3.7
2018-Jul-11 00:57N 30°24' W 086°42'2 3.9
2018-Jul-11 00:30N 30°24' W 086°44'2 4.4
2018-Jul-11 00:00N 30°24' W 086°47'2 4.9
2018-Jul-10 23:30N 30°24' W 086°49'2 4.5
2018-Jul-10 23:00N 30°24' W 086°52'2 4.3
2018-Jul-10 22:30N 30°23' W 086°55'3 0.1
2018-Jul-09 00:10N 30°23' W 086°58'1 6.5
2018-Jul-09 00:01N 30°23' W 086°56'3 6.3
2018-Jul-08 23:31N 30°24' W 086°53'3 6.3
2018-Jul-08 23:01N 30°24' W 086°49'3 6.3
2018-Jul-08 22:31N 30°24' W 086°45'12 6.1
2018-Jul-08 20:36N 30°25' W 086°32'1 5.9
2018-Jul-08 20:30N 30°25' W 086°31'3 6.1
2018-Jul-08 20:00N 30°27' W 086°29'2 4.6
2018-Jul-08 19:30N 30°29' W 086°29'2 3.9
2018-Jul-08 18:58N 30°31' W 086°30'0 0.1
2018-Jul-08 18:30N 30°31' W 086°30'0 0.0
2018-Jul-08 17:41N 30°31' W 086°30'0 0.1
2018-Jul-08 17:15N 30°31' W 086°30'0 0.1
2018-Jul-08 16:55N 30°31' W 086°30'0 0.1
2018-Jul-08 16:12N 30°31' W 086°30'0 0.1
2018-Jul-08 15:59N 30°31' W 086°30'0 0.1
2018-Jul-08 15:27N 30°31' W 086°30'0 0.0
2018-Jul-08 13:47N 30°31' W 086°30'0 0.0
2018-Jul-08 13:19N 30°31' W 086°30'0 0.1
2018-Jul-08 12:59N 30°31' W 086°30'0 0.0
2018-Jul-08 12:30N 30°31' W 086°30'0 0.0
2018-Jul-08 12:00N 30°31' W 086°30'0 0.0
2018-Jul-08 11:29N 30°31' W 086°30'0 0.0
2018-Jul-08 11:00N 30°31' W 086°30'0 0.0
2018-Jul-08 10:30N 30°31' W 086°30'0 0.0
2018-Jul-08 10:00N 30°31' W 086°30'0 0.0
2018-Jul-08 09:28N 30°31' W 086°30'0 0.0
2018-Jul-08 09:00N 30°31' W 086°30'0 0.0
2018-Jul-08 08:30N 30°31' W 086°30'0 0.0
2018-Jul-08 08:00N 30°31' W 086°30'0 0.0
2018-Jul-08 07:30N 30°31' W 086°30'0 0.0
2018-Jul-08 06:58N 30°31' W 086°30'0 0.0
2018-Jul-08 06:30N 30°31' W 086°30'0 0.0
2018-Jul-08 06:00N 30°31' W 086°30'0 0.0
2018-Jul-08 05:30N 30°31' W 086°30'0 0.0
2018-Jul-08 05:00N 30°31' W 086°30'0 0.0
2018-Jul-08 04:30N 30°31' W 086°30'0 0.0
2018-Jul-08 04:00N 30°31' W 086°30'0 0.0
2018-Jul-08 03:30N 30°31' W 086°30'0 0.0
2018-Jul-08 03:00N 30°31' W 086°30'0 0.0
2018-Jul-08 02:30N 30°31' W 086°30'0 0.0
2018-Jul-08 02:00N 30°31' W 086°30'0 0.0
2018-Jul-08 01:30N 30°31' W 086°30'0 0.0
2018-Jul-08 01:00N 30°31' W 086°30'0 0.0
2018-Jul-08 00:30N 30°31' W 086°30'0 0.2
2018-Jul-08 00:00N 30°31' W 086°30'0 0.0
2018-Jul-07 23:30N 30°31' W 086°30'0 0.0
2018-Jul-07 23:00N 30°31' W 086°30'0 0.0
2018-Jul-07 22:27N 30°31' W 086°30'0 0.0
2018-Jul-07 22:00N 30°31' W 086°30'0 0.1
2018-Jul-07 21:30N 30°31' W 086°30'0 0.1
2018-Jul-07 20:57N 30°31' W 086°30'0 0.1
2018-Jul-07 20:30N 30°31' W 086°30'0 0.2
2018-Jul-07 20:00N 30°31' W 086°30'0 0.0
2018-Jul-07 19:30N 30°31' W 086°30'0 0.0
2018-Jul-07 18:57N 30°31' W 086°30'0 0.0
2018-Jul-07 18:30N 30°31' W 086°30'0 0.0
2018-Jul-07 18:00N 30°31' W 086°30'0 0.0
2018-Jul-07 17:30N 30°31' W 086°30'0 0.0
2018-Jul-07 17:00N 30°31' W 086°30'0 0.1
2018-Jul-07 16:27N 30°31' W 086°30'0 0.1
2018-Jul-07 16:00N 30°31' W 086°30'0 0.0
2018-Jul-07 15:30N 30°31' W 086°30'0 0.0
2018-Jul-07 14:59N 30°31' W 086°30'0 0.0
2018-Jul-07 14:29N 30°31' W 086°30'0 0.0
2018-Jul-07 14:00N 30°31' W 086°30'0 0.0
2018-Jul-07 13:30N 30°31' W 086°30'0 0.0
2018-Jul-07 13:00N 30°31' W 086°30'0 0.0
2018-Jul-07 12:30N 30°31' W 086°30'0 0.1
2018-Jul-07 12:00N 30°31' W 086°30'0 0.0
2018-Jul-07 11:30N 30°31' W 086°30'1 1.6
2018-Jul-07 10:59N 30°31' W 086°29'2 5.0
2018-Jul-07 10:30N 30°28' W 086°28'2 4.8
2018-Jul-07 10:01N 30°26' W 086°29'9 4.7
2018-Jul-07 08:10N 30°24' W 086°39'2 4.4
2018-Jul-07 07:47N 30°24' W 086°41'1 4.5
2018-Jul-07 07:30N 30°24' W 086°43'2 4.6
2018-Jul-07 07:00N 30°24' W 086°45'3 5.0
2018-Jul-07 06:31N 30°24' W 086°48'2 4.4
2018-Jul-07 06:01N 30°24' W 086°51'3 5.0
2018-Jul-07 05:30N 30°24' W 086°54'2 5.1
2018-Jul-07 05:01N 30°23' W 086°57'  
Track history (hours):
 
Tides and Currents Weather Stations Pressure Air Temp Water Temp Dewpoint Dewpoint Depression Visibility Wind Speed Wind Dir Waves Ship Positions

T. H. Kelly

Owner: Cooper Marine & Timberlands Corporation, Mobile, AL. More information available from US FCC via Universal Licensing System and Coast Guard Vessel Documentation Center.

Last reported at 2018-Jul-13 10:01 UTC. Time now 2018-Jul-22 03:03 UTC.
Position N 30°23' W 086°57'.
Warning: this ship's position is 8 days out of date.

Length 27 m; draft 3 m.

Type: Towing. MMSI: 367004910.

Date/timePositionNaut miles runAvg speedWind from/ knotsBaromVisibWave heightAir tempDewpointWater temp
2018-Jul-13 10:01N 30°23' W 086°57'0 5.3
2018-Jul-13 09:58N 30°23' W 086°57'2 5.2
2018-Jul-13 09:30N 30°24' W 086°54'3 5.2
2018-Jul-13 09:00N 30°24' W 086°51'3 5.3
2018-Jul-13 08:30N 30°24' W 086°48'3 5.3
2018-Jul-13 08:00N 30°24' W 086°45'3 5.2
2018-Jul-13 07:25N 30°24' W 086°41'9 5.4
2018-Jul-13 05:42N 30°25' W 086°31'1 5.8
2018-Jul-13 05:30N 30°26' W 086°29'3 5.7
2018-Jul-13 05:00N 30°26' W 086°26'3 5.3
2018-Jul-13 04:30N 30°26' W 086°23'3 5.2
2018-Jul-13 03:58N 30°26' W 086°20'2 0.0
2018-Jul-11 05:43N 30°26' W 086°18'1 5.1
2018-Jul-11 05:30N 30°26' W 086°19'3 5.1
2018-Jul-11 05:00N 30°26' W 086°22'3 5.0
2018-Jul-11 04:30N 30°26' W 086°25'3 5.0
2018-Jul-11 04:00N 30°26' W 086°28'10 4.2
2018-Jul-11 01:37N 30°24' W 086°39'2 3.6
2018-Jul-11 01:10N 30°24' W 086°41'1 3.7
2018-Jul-11 00:57N 30°24' W 086°42'2 3.9
2018-Jul-11 00:30N 30°24' W 086°44'2 4.4
2018-Jul-11 00:00N 30°24' W 086°47'2 4.9
2018-Jul-10 23:30N 30°24' W 086°49'2 4.5
2018-Jul-10 23:00N 30°24' W 086°52'2 4.3
2018-Jul-10 22:30N 30°23' W 086°55'3 0.1
2018-Jul-09 00:10N 30°23' W 086°58'1 6.5
2018-Jul-09 00:01N 30°23' W 086°56'3 6.3
2018-Jul-08 23:31N 30°24' W 086°53'3 6.3
2018-Jul-08 23:01N 30°24' W 086°49'3 6.3
2018-Jul-08 22:31N 30°24' W 086°45'12 6.1
2018-Jul-08 20:36N 30°25' W 086°32'1 5.9
2018-Jul-08 20:30N 30°25' W 086°31'3 6.1
2018-Jul-08 20:00N 30°27' W 086°29'2 4.6
2018-Jul-08 19:30N 30°29' W 086°29'2 3.9
2018-Jul-08 18:58N 30°31' W 086°30'0 0.1
2018-Jul-08 18:30N 30°31' W 086°30'0 0.0
2018-Jul-08 17:41N 30°31' W 086°30'0 0.1
2018-Jul-08 17:15N 30°31' W 086°30'0 0.1
2018-Jul-08 16:55N 30°31' W 086°30'0 0.1
2018-Jul-08 16:12N 30°31' W 086°30'0 0.1
2018-Jul-08 15:59N 30°31' W 086°30'0 0.1
2018-Jul-08 15:27N 30°31' W 086°30'0 0.0
2018-Jul-08 13:47N 30°31' W 086°30'0 0.0
2018-Jul-08 13:19N 30°31' W 086°30'0 0.1
2018-Jul-08 12:59N 30°31' W 086°30'0 0.0
2018-Jul-08 12:30N 30°31' W 086°30'0 0.0
2018-Jul-08 12:00N 30°31' W 086°30'0 0.0
2018-Jul-08 11:29N 30°31' W 086°30'0 0.0
2018-Jul-08 11:00N 30°31' W 086°30'0 0.0
2018-Jul-08 10:30N 30°31' W 086°30'0 0.0
2018-Jul-08 10:00N 30°31' W 086°30'0 0.0
2018-Jul-08 09:28N 30°31' W 086°30'0 0.0
2018-Jul-08 09:00N 30°31' W 086°30'0 0.0
2018-Jul-08 08:30N 30°31' W 086°30'0 0.0
2018-Jul-08 08:00N 30°31' W 086°30'0 0.0
2018-Jul-08 07:30N 30°31' W 086°30'0 0.0
2018-Jul-08 06:58N 30°31' W 086°30'0 0.0
2018-Jul-08 06:30N 30°31' W 086°30'0 0.0
2018-Jul-08 06:00N 30°31' W 086°30'0 0.0
2018-Jul-08 05:30N 30°31' W 086°30'0 0.0
2018-Jul-08 05:00N 30°31' W 086°30'0 0.0
2018-Jul-08 04:30N 30°31' W 086°30'0 0.0
2018-Jul-08 04:00N 30°31' W 086°30'0 0.0
2018-Jul-08 03:30N 30°31' W 086°30'0 0.0
2018-Jul-08 03:00N 30°31' W 086°30'0 0.0
2018-Jul-08 02:30N 30°31' W 086°30'0 0.0
2018-Jul-08 02:00N 30°31' W 086°30'0 0.0
2018-Jul-08 01:30N 30°31' W 086°30'0 0.0
2018-Jul-08 01:00N 30°31' W 086°30'0 0.0
2018-Jul-08 00:30N 30°31' W 086°30'0 0.2
2018-Jul-08 00:00N 30°31' W 086°30'0 0.0
2018-Jul-07 23:30N 30°31' W 086°30'0 0.0
2018-Jul-07 23:00N 30°31' W 086°30'0 0.0
2018-Jul-07 22:27N 30°31' W 086°30'0 0.0
2018-Jul-07 22:00N 30°31' W 086°30'0 0.1
2018-Jul-07 21:30N 30°31' W 086°30'0 0.1
2018-Jul-07 20:57N 30°31' W 086°30'0 0.1
2018-Jul-07 20:30N 30°31' W 086°30'0 0.2
2018-Jul-07 20:00N 30°31' W 086°30'0 0.0
2018-Jul-07 19:30N 30°31' W 086°30'0 0.0
2018-Jul-07 18:57N 30°31' W 086°30'0 0.0
2018-Jul-07 18:30N 30°31' W 086°30'0 0.0
2018-Jul-07 18:00N 30°31' W 086°30'0 0.0
2018-Jul-07 17:30N 30°31' W 086°30'0 0.0
2018-Jul-07 17:00N 30°31' W 086°30'0 0.1
2018-Jul-07 16:27N 30°31' W 086°30'0 0.1
2018-Jul-07 16:00N 30°31' W 086°30'0 0.0
2018-Jul-07 15:30N 30°31' W 086°30'0 0.0
2018-Jul-07 14:59N 30°31' W 086°30'0 0.0
2018-Jul-07 14:29N 30°31' W 086°30'0 0.0
2018-Jul-07 14:00N 30°31' W 086°30'0 0.0
2018-Jul-07 13:30N 30°31' W 086°30'0 0.0
2018-Jul-07 13:00N 30°31' W 086°30'0 0.0
2018-Jul-07 12:30N 30°31' W 086°30'0 0.1
2018-Jul-07 12:00N 30°31' W 086°30'0 0.0
2018-Jul-07 11:30N 30°31' W 086°30'1 1.6
2018-Jul-07 10:59N 30°31' W 086°29'2 5.0
2018-Jul-07 10:30N 30°28' W 086°28'2 4.8
2018-Jul-07 10:01N 30°26' W 086°29'9 4.7
2018-Jul-07 08:10N 30°24' W 086°39'2 4.4
2018-Jul-07 07:47N 30°24' W 086°41'1 4.5
2018-Jul-07 07:30N 30°24' W 086°43'2 4.6
2018-Jul-07 07:00N 30°24' W 086°45'3 5.0
2018-Jul-07 06:31N 30°24' W 086°48'2 4.4
2018-Jul-07 06:01N 30°24' W 086°51'3 5.0
2018-Jul-07 05:30N 30°24' W 086°54'2 5.1
2018-Jul-07 05:01N 30°23' W 086°57'  

Dump ship's entire track history